Port Heiden Airport
PAPH : now visible

Aeroporto :











RITROVATECI SU...

 
LOGIN :

Iscrizione | Disclaimer

   EN    FR    IT 

 









Sommario :    VFR   VFR Marginale   IFR   IFR Intensivo   IFR Molto Intensivo
Visibilità : 
Base nubi : 
>= 8 km
>= 3000ft
5 / 8 km
1000 / 3000 ft
1500m / 5 km
500 / 1000 ft
800 / 1500m
200 / 500 ft
< 800m
< 200 ft
Simboli :   Temporali  Nebbia  Neve Forte  Precipitazioni Forti  Vento > 20 kt






- Altitudine del aeroporto : 95 ft
- Codice IATA : PTH


PAPH - Port Heiden

ULTIMO METAR :
  • 011856Z AUTO 09012KT 10SM BKN042 BKN060 OVC085 10/03 A2938 RMK AO2 RAE1757B35E46 SLP948 P0000 T01000028

METARs OBSOLETI :
  • 011756Z AUTO 08017G22KT 10SM -RA FEW037 OVC070 09/03 A2936 RMK AO2 PK WND 10026/1719 RAB47 SLP941 P0000 60000 T00940033 10094 20083 55008
  • 011656Z AUTO 08017G22KT 10SM SCT039 BKN045 OVC085 09/03 A2935 RMK AO2 PK WND 09027/1636 RAB40E53 SLP938 P0000 T00940028

TAF N/A
FIR PAZA / America del Nord



MetMap, La meteo Aeronautica in un colpo d'occhio ! - Copyright ORBIFLY Dicembre 2007 - Disclaimer

ORBIFLY MET'MAP TEAM :

Programmazione e sviluppo : Alexandra Zaïnal
Concezione : Baudouin d'Aumeries
Aiuto per la programmazione : Marc-Olivier Méhu
Supporto tecnico e logistico : Manuel Goepfert
Aiuto per la traduzione : Arnaldo La Scala

Contatto : metmap@orbifly.com




FONTI E CREDITI :

   NOAA       Earth
Advisory